Time;durP1;ratioP1;P1;durP2;ratioP2;P2;SDS_P1;SDS_P2;PMS_P1;PMS_P2;Temp;Humidity;BMP_temperature;BMP_pressure;BME280_temperature;BME280_humidity;BME280_pressure;Samples;Min_cycle;Max_cycle;Signal;HPM_P1;HPM_P2
2021/03/23 00:01:28;;;;;;;20.90;11.23;;;5.80;99.90;;;;;;5123047;27;20043;-57
2021/03/23 00:03:53;;;;;;;25.02;11.88;;;5.80;99.90;;;;;;5123369;27;20088;-54
2021/03/23 00:06:25;;;;;;;23.05;12.10;;;5.80;99.90;;;;;;5124782;27;20031;-58
2021/03/23 00:09:04;;;;;;;23.30;12.20;;;5.80;99.90;;;;;;5139117;27;20035;-57
2021/03/23 00:11:33;;;;;;;17.30;10.48;;;5.80;99.90;;;;;;5124485;27;20126;-58
2021/03/23 00:14:00;;;;;;;18.17;10.38;;;5.80;99.90;;;;;;5102765;27;20049;-59
2021/03/23 00:16:29;;;;;;;16.40;9.57;;;5.80;99.90;;;;;;5114320;27;20450;-56
2021/03/23 00:18:55;;;;;;;17.45;9.68;;;5.80;99.90;;;;;;5127845;27;20109;-57
2021/03/23 00:21:21;;;;;;;14.50;9.82;;;5.80;99.90;;;;;;5123319;27;20023;-57
2021/03/23 00:23:47;;;;;;;18.38;9.77;;;5.80;99.90;;;;;;5119446;27;20076;-57
2021/03/23 00:26:15;;;;;;;15.50;10.27;;;5.80;99.90;;;;;;5118747;27;20035;-56
2021/03/23 00:28:46;;;;;;;18.10;10.00;;;5.80;99.90;;;;;;5119997;27;20023;-52
2021/03/23 00:31:12;;;;;;;15.52;8.95;;;5.80;99.90;;;;;;5123682;27;20019;-56
2021/03/23 00:33:38;;;;;;;16.92;9.40;;;5.80;99.90;;;;;;5117660;27;20027;-56
2021/03/23 00:36:04;;;;;;;19.45;8.82;;;5.80;99.90;;;;;;5130050;27;20037;-57
2021/03/23 00:38:33;;;;;;;18.20;9.25;;;5.80;99.90;;;;;;5119413;27;20036;-53
2021/03/23 00:40:59;;;;;;;14.45;9.52;;;5.80;99.90;;;;;;5116883;27;20063;-55
2021/03/23 00:43:25;;;;;;;15.82;9.52;;;5.80;99.90;;;;;;5114526;27;20127;-54
2021/03/23 00:45:50;;;;;;;18.98;9.77;;;5.80;99.90;;;;;;5117675;27;20027;-56
2021/03/23 00:48:17;;;;;;;17.02;9.18;;;5.80;99.90;;;;;;5116918;27;20023;-57
2021/03/23 00:50:43;;;;;;;14.32;8.30;;;5.80;99.90;;;;;;5119781;27;20034;-58
2021/03/23 00:53:10;;;;;;;12.98;7.57;;;5.80;99.90;;;;;;5119535;27;20035;-56
2021/03/23 00:55:36;;;;;;;17.02;8.95;;;5.70;99.90;;;;;;5119102;27;20559;-54
2021/03/23 00:58:01;;;;;;;13.05;8.07;;;5.70;99.90;;;;;;5119587;27;20181;-58
2021/03/23 01:00:28;;;;;;;12.88;8.38;;;5.70;99.90;;;;;;5125683;27;20058;-55
2021/03/23 01:02:54;;;;;;;14.52;8.52;;;5.70;99.90;;;;;;5126045;27;20042;-59
2021/03/23 01:05:22;;;;;;;19.23;8.55;;;5.70;99.90;;;;;;5115274;27;20031;-58
2021/03/23 01:07:49;;;;;;;11.65;7.60;;;5.70;99.90;;;;;;5125343;27;20039;-57
2021/03/23 01:10:17;;;;;;;13.38;8.85;;;5.70;99.90;;;;;;5130261;27;20507;-58
2021/03/23 01:12:42;;;;;;;15.00;8.85;;;5.70;99.90;;;;;;5127574;27;20019;-58
2021/03/23 01:15:14;;;;;;;15.18;9.20;;;5.70;99.90;;;;;;5059722;27;20069;-56
2021/03/23 01:17:41;;;;;;;16.63;8.88;;;5.70;99.90;;;;;;5120274;27;20556;-54
2021/03/23 01:20:09;;;;;;;14.48;9.18;;;5.70;99.90;;;;;;5126770;27;20032;-56
2021/03/23 01:22:34;;;;;;;15.10;9.80;;;5.70;99.90;;;;;;5125131;27;20139;-58
2021/03/23 01:25:00;;;;;;;15.07;9.43;;;5.70;99.90;;;;;;5125670;27;20037;-60
2021/03/23 01:27:25;;;;;;;13.05;9.38;;;5.70;99.90;;;;;;5112182;27;20023;-57
2021/03/23 01:29:51;;;;;;;15.02;9.10;;;5.70;99.90;;;;;;5125024;27;20054;-57
2021/03/23 01:32:16;;;;;;;17.73;10.15;;;5.70;99.90;;;;;;5131708;27;20023;-57
2021/03/23 01:34:47;;;;;;;19.08;10.93;;;5.60;99.90;;;;;;5123018;27;20031;-53
2021/03/23 01:37:13;;;;;;;18.42;10.55;;;5.60;99.90;;;;;;5126495;27;20102;-56
2021/03/23 01:39:39;;;;;;;22.15;12.60;;;5.60;99.90;;;;;;5129175;27;20079;-55
2021/03/23 01:42:06;;;;;;;23.92;14.23;;;5.60;99.90;;;;;;5128985;27;20110;-55
2021/03/23 01:44:31;;;;;;;25.25;12.63;;;5.60;99.90;;;;;;5134162;27;20171;-55
2021/03/23 01:46:57;;;;;;;19.55;12.57;;;5.70;99.90;;;;;;5123182;27;20102;-55
2021/03/23 01:49:30;;;;;;;19.55;13.02;;;5.70;99.90;;;;;;5126064;27;20385;-54
2021/03/23 01:51:58;;;;;;;19.85;11.65;;;5.60;99.90;;;;;;5124716;27;20019;-54
2021/03/23 01:54:28;;;;;;;20.73;12.90;;;5.60;99.90;;;;;;5122815;27;20582;-55
2021/03/23 01:56:58;;;;;;;19.02;12.68;;;5.70;99.90;;;;;;5127895;27;20019;-56
2021/03/23 01:59:25;;;;;;;20.40;12.02;;;5.60;99.90;;;;;;5127122;27;20034;-54
2021/03/23 02:01:53;;;;;;;20.58;12.70;;;5.70;99.90;;;;;;5127287;27;20031;-58
2021/03/23 02:04:18;;;;;;;21.23;12.10;;;5.60;99.90;;;;;;5130330;27;20114;-55
2021/03/23 02:06:47;;;;;;;20.58;12.93;;;5.60;99.90;;;;;;5128448;27;20149;-58
2021/03/23 02:09:20;;;;;;;23.98;13.13;;;5.60;99.90;;;;;;5138304;27;20030;-56
2021/03/23 02:11:54;;;;;;;19.50;11.85;;;5.70;99.90;;;;;;5127409;27;20015;-60
2021/03/23 02:14:22;;;;;;;20.20;11.57;;;5.60;99.90;;;;;;5131398;27;20028;-59
2021/03/23 02:16:48;;;;;;;22.65;12.50;;;5.60;99.90;;;;;;5118408;27;20042;-57
2021/03/23 02:19:17;;;;;;;18.30;11.82;;;5.60;99.90;;;;;;5135227;27;20578;-60
2021/03/23 02:21:42;;;;;;;27.33;12.63;;;5.60;99.90;;;;;;5125236;27;20722;-55
2021/03/23 02:24:12;;;;;;;19.13;12.32;;;5.60;99.90;;;;;;5126195;27;20064;-56
2021/03/23 02:26:37;;;;;;;21.20;12.77;;;5.60;99.90;;;;;;5133002;27;20027;-55
2021/03/23 02:29:05;;;;;;;20.75;12.93;;;5.60;99.90;;;;;;5134703;27;20534;-57
2021/03/23 02:31:34;;;;;;;20.13;12.48;;;5.60;99.90;;;;;;5129085;27;20072;-55
2021/03/23 02:34:02;;;;;;;20.48;12.60;;;5.60;99.90;;;;;;5126189;27;20039;-55
2021/03/23 02:36:29;;;;;;;22.77;13.52;;;5.60;99.90;;;;;;5131133;27;20023;-56
2021/03/23 02:38:54;;;;;;;20.55;12.57;;;5.60;99.90;;;;;;5131731;27;20031;-57
2021/03/23 02:41:20;;;;;;;19.13;12.38;;;5.60;99.90;;;;;;5118776;27;20055;-55
2021/03/23 02:43:47;;;;;;;23.85;12.88;;;5.60;99.90;;;;;;5132769;27;20085;-55
2021/03/23 02:46:13;;;;;;;21.13;13.45;;;5.60;99.90;;;;;;5124672;27;20568;-56
2021/03/23 02:48:39;;;;;;;22.35;13.88;;;5.60;99.90;;;;;;5134557;27;20019;-57
2021/03/23 02:51:05;;;;;;;23.60;12.55;;;5.60;99.90;;;;;;5128484;27;20461;-57
2021/03/23 02:53:30;;;;;;;23.60;14.05;;;5.60;99.90;;;;;;5133065;27;20022;-55
2021/03/23 02:55:56;;;;;;;20.48;13.35;;;5.60;99.90;;;;;;5127519;27;20030;-55
2021/03/23 02:58:22;;;;;;;21.92;14.00;;;5.60;99.90;;;;;;5138541;27;20058;-58
2021/03/23 03:00:48;;;;;;;22.85;13.63;;;5.60;99.90;;;;;;5096054;27;20051;-57
2021/03/23 03:03:14;;;;;;;26.40;14.07;;;5.60;99.90;;;;;;5127678;27;20504;-54
2021/03/23 03:05:40;;;;;;;23.13;13.85;;;5.50;99.90;;;;;;5128110;27;20050;-56
2021/03/23 03:08:06;;;;;;;25.48;14.27;;;5.50;99.90;;;;;;5126055;27;20366;-56
2021/03/23 03:10:33;;;;;;;21.20;13.77;;;5.50;99.90;;;;;;5133423;27;20153;-57
2021/03/23 03:13:01;;;;;;;23.63;13.80;;;5.50;99.90;;;;;;5128698;27;20054;-58
2021/03/23 03:15:27;;;;;;;29.35;13.75;;;5.50;99.90;;;;;;5110702;27;20046;-55
2021/03/23 03:17:53;;;;;;;22.15;14.63;;;5.50;99.90;;;;;;5116503;27;20114;-54
2021/03/23 03:20:19;;;;;;;21.63;13.93;;;5.50;99.90;;;;;;5125720;27;20156;-58
2021/03/23 03:22:44;;;;;;;21.27;13.70;;;5.50;99.90;;;;;;5130570;27;20057;-55
2021/03/23 03:25:12;;;;;;;20.85;13.45;;;5.50;99.90;;;;;;5126679;27;20396;-56
2021/03/23 03:27:38;;;;;;;23.38;14.70;;;5.50;99.90;;;;;;5132041;27;20035;-56
2021/03/23 03:30:09;;;;;;;19.90;13.60;;;5.50;99.90;;;;;;5133774;27;20026;-57
2021/03/23 03:32:35;;;;;;;25.67;14.57;;;5.50;99.90;;;;;;5125882;27;20031;-57
2021/03/23 03:35:03;;;;;;;22.88;14.52;;;5.50;99.90;;;;;;5119822;27;20027;-55
2021/03/23 03:37:28;;;;;;;27.55;14.73;;;5.50;99.90;;;;;;5127883;27;20023;-58
2021/03/23 03:39:54;;;;;;;25.65;14.57;;;5.50;99.90;;;;;;5110974;27;20046;-58
2021/03/23 03:42:19;;;;;;;27.05;15.20;;;5.40;99.90;;;;;;5119546;27;20027;-57
2021/03/23 03:44:45;;;;;;;28.20;15.25;;;5.40;99.90;;;;;;5133099;27;20066;-58
2021/03/23 03:47:11;;;;;;;28.30;16.75;;;5.50;99.90;;;;;;5111258;27;20057;-57
2021/03/23 03:49:37;;;;;;;33.00;15.68;;;5.40;99.90;;;;;;5132749;27;20055;-58
2021/03/23 03:52:03;;;;;;;28.05;17.05;;;5.40;99.90;;;;;;5113103;27;20055;-56
2021/03/23 03:54:28;;;;;;;31.90;18.10;;;5.40;99.90;;;;;;5123313;27;20035;-55
2021/03/23 03:56:54;;;;;;;29.85;17.52;;;5.40;99.90;;;;;;5126259;27;20019;-58
2021/03/23 03:59:19;;;;;;;33.60;17.10;;;5.50;99.90;;;;;;5123703;27;20046;-58
2021/03/23 04:01:45;;;;;;;33.47;19.65;;;5.40;99.90;;;;;;5131419;27;20063;-56
2021/03/23 04:04:11;;;;;;;38.17;18.08;;;5.50;99.90;;;;;;5109934;27;20104;-55
2021/03/23 04:06:36;;;;;;;30.63;18.20;;;5.40;99.90;;;;;;5127250;27;20023;-56
2021/03/23 04:09:02;;;;;;;31.15;19.25;;;5.50;99.90;;;;;;5135662;27;20035;-56
2021/03/23 04:11:28;;;;;;;36.78;19.20;;;5.40;99.90;;;;;;5118092;27;20031;-55
2021/03/23 04:13:53;;;;;;;33.53;19.25;;;5.40;99.90;;;;;;5128518;27;20468;-53
2021/03/23 04:16:19;;;;;;;32.05;19.75;;;5.40;99.90;;;;;;5107447;27;20044;-53
2021/03/23 04:18:44;;;;;;;35.00;19.27;;;5.40;99.90;;;;;;5130992;27;20031;-55
2021/03/23 04:21:10;;;;;;;33.72;19.73;;;5.50;99.90;;;;;;5127801;27;20034;-57
2021/03/23 04:23:39;;;;;;;37.28;20.30;;;5.50;99.90;;;;;;5118283;27;20034;-55
2021/03/23 04:26:07;;;;;;;33.40;19.80;;;5.40;99.90;;;;;;5127586;27;20020;-53
2021/03/23 04:28:33;;;;;;;39.20;21.25;;;5.40;99.90;;;;;;5131185;27;20489;-56
2021/03/23 04:30:59;;;;;;;38.83;22.02;;;5.40;99.90;;;;;;5129472;27;20097;-57
2021/03/23 04:33:26;;;;;;;34.10;20.88;;;5.40;99.90;;;;;;5121266;27;20031;-56
2021/03/23 04:35:58;;;;;;;34.35;19.90;;;5.40;99.90;;;;;;5131531;27;20540;-58
2021/03/23 04:38:29;;;;;;;40.10;21.23;;;5.40;99.90;;;;;;5135404;27;20028;-58
2021/03/23 04:40:56;;;;;;;33.80;20.55;;;5.40;99.90;;;;;;5122575;27;20106;-58
2021/03/23 04:43:32;;;;;;;40.40;21.88;;;5.40;99.90;;;;;;5135167;27;20043;-55
2021/03/23 04:45:58;;;;;;;35.33;21.05;;;5.40;99.90;;;;;;5131909;27;20065;-56
2021/03/23 04:48:24;;;;;;;35.00;18.98;;;5.40;99.90;;;;;;5133788;27;20031;-57
2021/03/23 04:50:50;;;;;;;34.22;18.95;;;5.40;99.90;;;;;;5126905;27;20658;-56
2021/03/23 04:53:24;;;;;;;29.25;17.02;;;5.40;99.90;;;;;;5131240;27;20101;-58
2021/03/23 04:55:51;;;;;;;36.10;20.52;;;5.40;99.90;;;;;;5127651;27;20035;-57
2021/03/23 04:58:18;;;;;;;39.05;20.25;;;5.30;99.90;;;;;;5130999;27;20038;-54
2021/03/23 05:00:44;;;;;;;34.85;19.92;;;5.30;99.90;;;;;;5130810;27;20031;-54
2021/03/23 05:03:19;;;;;;;38.08;20.75;;;5.40;99.90;;;;;;5129575;27;20133;-54
2021/03/23 05:05:45;;;;;;;37.03;20.63;;;5.40;99.90;;;;;;5124740;27;20525;-57
2021/03/23 05:08:10;;;;;;;37.20;22.15;;;5.40;99.90;;;;;;5126914;27;20031;-55
2021/03/23 05:10:36;;;;;;;36.72;20.83;;;5.30;99.90;;;;;;5128731;27;20396;-56
2021/03/23 05:13:02;;;;;;;39.45;21.05;;;5.40;99.90;;;;;;5135986;27;20458;-54
2021/03/23 05:15:29;;;;;;;43.72;20.23;;;5.40;99.90;;;;;;5088073;27;21335;-57
2021/03/23 05:17:54;;;;;;;31.42;16.95;;;5.40;99.90;;;;;;5127350;27;20031;-55
2021/03/23 05:20:20;;;;;;;32.53;16.35;;;5.30;99.90;;;;;;5113824;27;20038;-57
2021/03/23 05:22:45;;;;;;;27.50;15.77;;;5.30;99.90;;;;;;5130679;27;20031;-54
2021/03/23 05:25:12;;;;;;;30.65;15.93;;;5.20;99.90;;;;;;5127624;27;20055;-57
2021/03/23 05:27:38;;;;;;;29.45;15.75;;;5.20;99.90;;;;;;5130713;27;20511;-56
2021/03/23 05:30:04;;;;;;;44.60;17.77;;;5.30;99.90;;;;;;5129346;27;20106;-57
2021/03/23 05:32:30;;;;;;;35.42;17.33;;;5.30;99.90;;;;;;5124413;27;20096;-55
2021/03/23 05:34:55;;;;;;;29.83;15.82;;;5.20;99.90;;;;;;5121304;28;20104;-56
2021/03/23 05:37:21;;;;;;;29.02;17.25;;;5.20;99.90;;;;;;5115833;28;20054;-57
2021/03/23 05:39:47;;;;;;;32.08;18.60;;;5.20;99.90;;;;;;5130432;27;20030;-53
2021/03/23 05:42:22;;;;;;;44.25;23.88;;;5.10;99.90;;;;;;5116635;27;20505;-57
2021/03/23 05:45:31;;;;;;;40.28;22.25;;;5.10;99.90;;;;;;5123950;27;20075;-54
2021/03/23 05:48:29;;;;;;;41.72;22.95;;;5.10;99.90;;;;;;5121062;27;20031;-56
2021/03/23 05:50:58;;;;;;;35.40;19.85;;;5.20;99.90;;;;;;5123625;27;20061;-58
2021/03/23 05:53:33;;;;;;;36.00;20.20;;;5.20;99.90;;;;;;5122389;27;20541;-57
2021/03/23 05:56:02;;;;;;;59.53;28.73;;;5.20;99.90;;;;;;5126306;27;20411;-59
2021/03/23 05:58:32;;;;;;;37.13;20.95;;;5.20;99.90;;;;;;5120648;27;20400;-58
2021/03/23 06:01:02;;;;;;;31.70;18.38;;;5.20;99.90;;;;;;5125242;27;20031;-58
2021/03/23 06:03:29;;;;;;;33.53;17.33;;;5.20;99.90;;;;;;5123669;27;20397;-58
2021/03/23 06:06:04;;;;;;;33.83;17.83;;;5.20;99.90;;;;;;5122657;27;20023;-56
2021/03/23 06:08:36;;;;;;;59.15;31.55;;;5.20;99.90;;;;;;5134831;27;20026;-57
2021/03/23 06:11:04;;;;;;;39.42;21.63;;;5.20;99.90;;;;;;5129484;27;20023;-57
2021/03/23 06:13:53;;;;;;;43.40;24.77;;;5.20;99.90;;;;;;5131847;27;20787;-57
2021/03/23 06:16:34;;;;;;;66.47;38.45;;;5.20;99.90;;;;;;5065080;27;20423;-54
2021/03/23 06:19:11;;;;;;;85.93;48.03;;;5.30;99.90;;;;;;5133496;27;20492;-55
2021/03/23 06:22:13;;;;;;;96.68;50.80;;;5.30;99.90;;;;;;5131858;27;20033;-56
2021/03/23 06:24:48;;;;;;;53.60;31.25;;;5.40;99.90;;;;;;5113510;27;20484;-56
2021/03/23 06:27:35;;;;;;;93.50;50.70;;;5.40;99.90;;;;;;5129309;27;20019;-57
2021/03/23 06:30:15;;;;;;;56.30;31.63;;;5.50;99.90;;;;;;5128761;27;20027;-58
2021/03/23 06:32:51;;;;;;;50.88;30.05;;;5.50;99.90;;;;;;5138701;27;20587;-58
2021/03/23 06:35:19;;;;;;;72.00;37.90;;;5.60;99.90;;;;;;5128143;27;20027;-53
2021/03/23 06:37:45;;;;;;;55.70;31.15;;;5.60;99.90;;;;;;5132969;27;20534;-55
2021/03/23 06:40:19;;;;;;;47.08;27.45;;;5.60;99.90;;;;;;5132379;27;20122;-56
2021/03/23 06:42:47;;;;;;;48.55;28.23;;;5.70;99.90;;;;;;5136924;27;20031;-58
2021/03/23 06:45:20;;;;;;;46.10;28.42;;;5.70;99.90;;;;;;5132505;27;20027;-57
2021/03/23 06:47:46;;;;;;;45.22;27.27;;;5.70;99.90;;;;;;5126153;27;20019;-57
2021/03/23 06:50:23;;;;;;;42.72;25.75;;;5.80;99.90;;;;;;5132177;27;20163;-57
2021/03/23 06:53:08;;;;;;;56.08;29.75;;;5.90;99.90;;;;;;5124087;27;20524;-54
2021/03/23 06:55:34;;;;;;;44.10;25.88;;;5.90;99.90;;;;;;5137491;27;20027;-57
2021/03/23 06:58:00;;;;;;;43.85;27.00;;;5.90;99.90;;;;;;5128705;27;20160;-57
2021/03/23 07:00:34;;;;;;;50.75;26.73;;;5.90;99.90;;;;;;5129572;27;20015;-56
2021/03/23 07:03:12;;;;;;;43.88;26.50;;;6.00;99.90;;;;;;5140469;27;20027;-58
2021/03/23 07:05:42;;;;;;;51.22;26.98;;;6.00;99.90;;;;;;5142982;27;20656;-59
2021/03/23 07:08:08;;;;;;;48.08;26.20;;;6.10;99.90;;;;;;5133720;27;20023;-53
2021/03/23 07:10:36;;;;;;;41.75;25.65;;;6.10;99.90;;;;;;5134109;27;20023;-55
2021/03/23 07:13:03;;;;;;;37.83;25.05;;;6.20;99.90;;;;;;5133326;27;20077;-53
2021/03/23 07:15:32;;;;;;;46.55;25.80;;;6.20;99.90;;;;;;5124964;27;20846;-56
2021/03/23 07:18:09;;;;;;;43.88;27.30;;;6.20;99.90;;;;;;5104319;27;20403;-58
2021/03/23 07:20:37;;;;;;;42.97;26.35;;;6.20;99.90;;;;;;5121359;27;20032;-56
2021/03/23 07:23:37;;;;;;;40.65;26.27;;;6.20;99.90;;;;;;5132190;27;20430;-52
2021/03/23 07:26:24;;;;;;;38.13;24.85;;;6.20;99.90;;;;;;5124059;27;20027;-57
2021/03/23 07:28:50;;;;;;;45.42;25.50;;;6.30;99.90;;;;;;5134169;27;20508;-57
2021/03/23 07:31:48;;;;;;;45.92;26.15;;;6.30;99.90;;;;;;5131868;27;20027;-58
2021/03/23 07:34:29;;;;;;;40.15;25.60;;;6.40;99.90;;;;;;5124135;27;20451;-59
2021/03/23 07:37:03;;;;;;;45.45;26.80;;;6.50;99.90;;;;;;5132658;27;20597;-57
2021/03/23 07:40:02;;;;;;;44.65;25.42;;;6.60;99.90;;;;;;5128645;27;20419;-59
2021/03/23 07:42:36;;;;;;;44.45;25.10;;;6.80;99.90;;;;;;5129821;27;20027;-58
2021/03/23 07:45:17;;;;;;;40.28;23.35;;;6.90;99.90;;;;;;5131758;27;20060;-60
2021/03/23 07:48:13;;;;;;;43.30;24.55;;;7.00;99.90;;;;;;5126058;27;20031;-54
2021/03/23 07:50:44;;;;;;;42.30;26.60;;;7.10;99.90;;;;;;5126363;27;20035;-57
2021/03/23 07:53:12;;;;;;;46.20;25.85;;;7.10;99.90;;;;;;5131101;27;20605;-56
2021/03/23 07:55:38;;;;;;;39.47;24.45;;;7.10;99.90;;;;;;5129403;27;20030;-56
2021/03/23 07:58:36;;;;;;;39.60;25.33;;;7.30;99.90;;;;;;5131558;27;20052;-54
2021/03/23 08:01:07;;;;;;;42.92;23.75;;;7.40;99.90;;;;;;5096480;27;20123;-53
2021/03/23 08:04:04;;;;;;;51.50;29.75;;;7.50;99.90;;;;;;5122492;27;20024;-54
2021/03/23 08:07:02;;;;;;;44.50;24.67;;;7.60;99.90;;;;;;5124949;27;20019;-55
2021/03/23 08:09:34;;;;;;;52.08;30.85;;;7.50;99.90;;;;;;5115508;27;21306;-57
2021/03/23 08:12:08;;;;;;;43.70;27.27;;;7.60;99.90;;;;;;5119195;27;20039;-58
2021/03/23 08:15:03;;;;;;;45.13;26.45;;;7.60;99.90;;;;;;5125857;27;20023;-56
2021/03/23 08:18:13;;;;;;;40.33;25.88;;;7.80;99.90;;;;;;5019259;27;20095;-55
2021/03/23 08:20:42;;;;;;;42.90;25.00;;;7.90;99.90;;;;;;5123883;27;20106;-58
2021/03/23 08:23:32;;;;;;;39.17;24.40;;;8.10;99.90;;;;;;5121218;27;20067;-56
2021/03/23 08:25:57;;;;;;;50.80;28.85;;;8.10;99.90;;;;;;5121037;27;20020;-55
2021/03/23 08:28:48;;;;;;;33.45;22.73;;;8.10;99.90;;;;;;5125996;27;20023;-56
2021/03/23 08:31:23;;;;;;;41.65;24.85;;;8.30;99.90;;;;;;5128311;27;20046;-54
2021/03/23 08:34:02;;;;;;;40.25;23.90;;;8.40;99.90;;;;;;5118439;27;20031;-55
2021/03/23 08:37:04;;;;;;;40.17;25.42;;;8.40;99.90;;;;;;5111161;27;20377;-56
2021/03/23 08:39:45;;;;;;;35.10;22.60;;;8.40;99.90;;;;;;5123518;27;20019;-57
2021/03/23 08:42:13;;;;;;;40.53;24.30;;;8.60;99.90;;;;;;5125538;27;20106;-54
2021/03/23 08:44:45;;;;;;;38.33;23.55;;;8.70;99.90;;;;;;5123943;27;20027;-54
2021/03/23 08:47:33;;;;;;;38.08;24.58;;;8.70;99.90;;;;;;5124194;27;20054;-54
2021/03/23 08:50:07;;;;;;;40.80;24.67;;;8.70;99.90;;;;;;5125491;27;20027;-56
2021/03/23 08:52:37;;;;;;;45.45;23.73;;;8.60;99.90;;;;;;5124048;27;20020;-53
2021/03/23 08:55:24;;;;;;;36.17;22.63;;;8.70;99.90;;;;;;5124615;27;20426;-55
2021/03/23 08:58:05;;;;;;;37.75;24.52;;;8.90;99.90;;;;;;5124591;27;20114;-54
2021/03/23 09:00:37;;;;;;;45.60;27.77;;;8.70;99.90;;;;;;5123260;27;20034;-57
2021/03/23 09:03:09;;;;;;;40.28;26.42;;;8.60;99.90;;;;;;5125977;27;20030;-56
2021/03/23 09:05:50;;;;;;;39.25;22.90;;;8.60;99.90;;;;;;5125668;27;20019;-53
2021/03/23 09:08:21;;;;;;;37.25;23.17;;;8.80;99.90;;;;;;5132754;27;20039;-58
2021/03/23 09:11:39;;;;;;;39.17;23.42;;;9.00;99.90;;;;;;5120389;27;20083;-54
2021/03/23 09:14:08;;;;;;;42.78;24.15;;;9.00;99.90;;;;;;5100944;27;20392;-55
2021/03/23 09:17:14;;;;;;;37.58;22.85;;;9.10;99.90;;;;;;5077610;27;20408;-57
2021/03/23 09:19:53;;;;;;;36.97;23.67;;;9.20;99.90;;;;;;5114263;27;20039;-55
2021/03/23 09:22:26;;;;;;;37.30;22.10;;;9.40;99.90;;;;;;5124973;27;20119;-58
2021/03/23 09:25:20;;;;;;;36.33;21.77;;;9.90;99.90;;;;;;5125289;27;20047;-53
2021/03/23 09:27:49;;;;;;;35.65;22.35;;;9.90;99.90;;;;;;5124584;27;20019;-57
2021/03/23 09:30:46;;;;;;;36.08;22.75;;;10.20;99.90;;;;;;5129714;27;20688;-58
2021/03/23 09:33:21;;;;;;;44.20;22.70;;;10.50;99.90;;;;;;5130068;28;20035;-57
2021/03/23 09:36:19;;;;;;;37.15;23.40;;;10.10;99.90;;;;;;5120204;27;20433;-56
2021/03/23 09:38:46;;;;;;;31.33;20.90;;;10.20;99.90;;;;;;5107404;28;20039;-57
2021/03/23 09:41:20;;;;;;;38.95;24.75;;;10.40;99.90;;;;;;5132100;27;20484;-57
2021/03/23 09:43:52;;;;;;;36.05;22.45;;;10.60;99.90;;;;;;5128337;27;20026;-57
2021/03/23 09:46:47;;;;;;;33.55;21.20;;;10.80;99.90;;;;;;5128875;27;20020;-56
2021/03/23 09:49:24;;;;;;;35.33;24.23;;;10.70;99.90;;;;;;5132336;27;20023;-58
2021/03/23 09:52:03;;;;;;;33.67;20.92;;;11.00;99.90;;;;;;5125765;27;20008;-58
2021/03/23 09:54:31;;;;;;;33.47;21.30;;;11.20;99.90;;;;;;5131680;27;20019;-57
2021/03/23 09:57:12;;;;;;;37.65;22.83;;;11.40;99.30;;;;;;5128509;27;20019;-58
2021/03/23 09:59:51;;;;;;;38.03;22.08;;;11.60;99.10;;;;;;5129136;28;20422;-58
2021/03/23 10:02:21;;;;;;;36.42;22.55;;;11.70;98.30;;;;;;5129722;27;20030;-57
2021/03/23 10:04:47;;;;;;;34.97;21.90;;;11.90;98.20;;;;;;5136542;27;20019;-56
2021/03/23 10:07:36;;;;;;;36.53;21.40;;;11.80;98.20;;;;;;5126323;28;20019;-61
2021/03/23 10:10:27;;;;;;;30.92;19.98;;;11.60;97.90;;;;;;5129370;27;20023;-55
2021/03/23 10:12:54;;;;;;;32.03;20.35;;;11.60;98.10;;;;;;5129078;27;20042;-56
2021/03/23 10:15:20;;;;;;;38.92;23.38;;;11.70;98.20;;;;;;5133510;27;20026;-58
2021/03/23 10:17:46;;;;;;;40.83;23.45;;;11.60;97.70;;;;;;5089881;27;20043;-55
2021/03/23 10:20:17;;;;;;;34.67;21.25;;;11.40;98.30;;;;;;5127478;28;20468;-58
2021/03/23 10:22:52;;;;;;;30.95;19.70;;;11.40;98.80;;;;;;5121148;27;20023;-55
2021/03/23 10:25:20;;;;;;;32.85;19.92;;;11.60;98.80;;;;;;5126274;27;20024;-56
2021/03/23 10:27:45;;;;;;;33.05;20.63;;;11.70;98.40;;;;;;5106546;27;20019;-55
2021/03/23 10:30:40;;;;;;;37.47;21.42;;;11.80;99.00;;;;;;5114639;27;20050;-54
2021/03/23 10:33:24;;;;;;;32.60;21.85;;;11.60;98.40;;;;;;5085237;28;20043;-56
2021/03/23 10:35:52;;;;;;;36.78;21.45;;;11.80;98.30;;;;;;5105960;27;20028;-55
2021/03/23 10:38:29;;;;;;;37.38;19.92;;;11.70;98.10;;;;;;5111972;27;20042;-55
2021/03/23 10:40:57;;;;;;;33.55;20.40;;;12.10;98.30;;;;;;5106051;28;20023;-57
2021/03/23 10:43:28;;;;;;;32.97;20.45;;;11.60;97.50;;;;;;5099068;27;20038;-56
2021/03/23 10:45:54;;;;;;;35.45;19.52;;;11.80;97.90;;;;;;5113656;27;20019;-57
2021/03/23 10:48:25;;;;;;;34.53;18.50;;;12.40;98.30;;;;;;5111696;28;20102;-54
2021/03/23 10:51:06;;;;;;;32.17;19.25;;;12.60;97.90;;;;;;5112578;27;20409;-56
2021/03/23 10:53:32;;;;;;;34.88;21.80;;;12.80;96.70;;;;;;5116038;27;20115;-58
2021/03/23 10:55:59;;;;;;;42.88;23.25;;;13.00;96.50;;;;;;5105580;28;20099;-58
2021/03/23 10:58:26;;;;;;;41.15;24.02;;;13.10;96.90;;;;;;5113594;27;20111;-58
2021/03/23 11:01:15;;;;;;;49.70;29.58;;;13.10;96.20;;;;;;5112326;27;20030;-55
2021/03/23 11:03:42;;;;;;;41.05;24.58;;;13.10;95.90;;;;;;5107766;28;20074;-54
2021/03/23 11:06:43;;;;;;;48.60;27.13;;;12.80;95.80;;;;;;5109133;27;20032;-56
2021/03/23 11:09:15;;;;;;;31.52;22.10;;;12.70;96.40;;;;;;5106735;27;20020;-58
2021/03/23 11:11:41;;;;;;;35.95;21.45;;;12.60;96.90;;;;;;5109577;28;20096;-56
2021/03/23 11:14:06;;;;;;;43.33;23.83;;;12.40;96.10;;;;;;5112598;28;20052;-57
2021/03/23 11:16:35;;;;;;;32.85;20.65;;;12.40;97.10;;;;;;5073205;27;20043;-58
2021/03/23 11:19:02;;;;;;;32.25;20.45;;;12.70;96.50;;;;;;5107743;28;20031;-60
2021/03/23 11:21:34;;;;;;;48.58;27.52;;;12.60;96.60;;;;;;5107009;27;20028;-56
2021/03/23 11:24:00;;;;;;;29.83;20.38;;;12.30;96.90;;;;;;5110082;28;20038;-59
2021/03/23 11:26:28;;;;;;;36.92;22.70;;;12.20;97.30;;;;;;5108152;27;20024;-59
2021/03/23 11:28:58;;;;;;;43.70;26.17;;;12.20;97.50;;;;;;5092189;27;20472;-57
2021/03/23 11:31:27;;;;;;;80.72;46.20;;;12.40;97.10;;;;;;5106628;27;20019;-58
2021/03/23 11:33:53;;;;;;;92.55;46.45;;;12.20;96.90;;;;;;5104063;27;20038;-58
2021/03/23 11:36:20;;;;;;;187.98;101.45;;;12.20;97.40;;;;;;5101948;28;20026;-58
2021/03/23 11:38:47;;;;;;;41.00;23.52;;;11.90;97.80;;;;;;5105097;27;20031;-58
2021/03/23 11:41:32;;;;;;;53.70;31.58;;;11.80;97.70;;;;;;5108852;28;20039;-60
2021/03/23 11:44:05;;;;;;;42.30;25.65;;;11.70;98.60;;;;;;5103519;28;20032;-58
2021/03/23 11:46:40;;;;;;;35.88;21.10;;;11.70;98.40;;;;;;5098393;28;20482;-56
2021/03/23 11:49:11;;;;;;;38.20;22.92;;;11.80;98.20;;;;;;5099180;28;20026;-58
2021/03/23 11:51:42;;;;;;;51.30;28.08;;;12.00;98.20;;;;;;5111869;27;20023;-60
2021/03/23 11:54:09;;;;;;;45.85;20.95;;;12.20;97.70;;;;;;5102778;27;20389;-56
2021/03/23 11:56:35;;;;;;;38.90;24.63;;;12.10;97.90;;;;;;5115753;27;20027;-54
2021/03/23 11:59:00;;;;;;;41.00;24.30;;;12.10;97.80;;;;;;5106170;27;20034;-55
2021/03/23 12:01:26;;;;;;;49.30;28.25;;;11.80;97.80;;;;;;5106186;27;20023;-58
2021/03/23 12:03:52;;;;;;;35.20;20.58;;;11.70;98.50;;;;;;5104642;27;20412;-58
2021/03/23 12:06:27;;;;;;;35.00;19.88;;;11.60;98.80;;;;;;5109534;28;20047;-59
2021/03/23 12:08:58;;;;;;;38.20;21.30;;;11.80;98.40;;;;;;5109740;27;20031;-58
2021/03/23 12:11:44;;;;;;;40.30;22.15;;;11.80;98.20;;;;;;5103330;28;20020;-59
2021/03/23 12:14:29;;;;;;;43.97;22.55;;;12.20;98.10;;;;;;5111703;28;20041;-58
2021/03/23 12:17:09;;;;;;;43.35;22.48;;;12.10;97.70;;;;;;5070586;27;20059;-59
2021/03/23 12:20:00;;;;;;;34.17;20.55;;;11.60;98.10;;;;;;5108822;28;20034;-59
2021/03/23 12:22:26;;;;;;;39.38;20.77;;;11.60;98.10;;;;;;5111489;27;20102;-58
2021/03/23 12:24:51;;;;;;;33.67;19.67;;;11.70;98.10;;;;;;5096975;27;20106;-58
2021/03/23 12:27:18;;;;;;;35.88;19.23;;;11.80;98.20;;;;;;5107836;27;20016;-58
2021/03/23 12:29:43;;;;;;;30.55;18.15;;;11.80;98.30;;;;;;5099342;28;20032;-57
2021/03/23 12:32:17;;;;;;;35.22;19.70;;;11.80;97.30;;;;;;5114827;27;20019;-55
2021/03/23 12:34:45;;;;;;;31.77;19.40;;;11.50;97.60;;;;;;5101027;27;20032;-58
2021/03/23 12:37:12;;;;;;;33.97;19.75;;;11.60;97.90;;;;;;5128927;27;20460;-57
2021/03/23 12:39:38;;;;;;;35.50;17.65;;;11.70;97.40;;;;;;5129668;27;20131;-58
2021/03/23 12:42:04;;;;;;;37.38;18.45;;;12.00;97.60;;;;;;5130266;27;20064;-59
2021/03/23 12:44:30;;;;;;;28.85;20.27;;;12.20;97.80;;;;;;5130081;27;20026;-58
2021/03/23 12:46:56;;;;;;;31.13;18.10;;;12.30;96.90;;;;;;5132108;27;20031;-58
2021/03/23 12:49:21;;;;;;;36.13;17.48;;;12.50;96.50;;;;;;5137465;27;20023;-58
2021/03/23 12:51:49;;;;;;;38.10;17.98;;;12.60;96.30;;;;;;5138680;27;20023;-59
2021/03/23 12:54:37;;;;;;;32.50;17.70;;;12.80;95.70;;;;;;5129837;27;20034;-57
2021/03/23 12:57:12;;;;;;;29.60;17.63;;;12.80;95.70;;;;;;5129526;27;20113;-59
2021/03/23 12:59:38;;;;;;;47.72;27.95;;;13.00;95.60;;;;;;5138233;27;20030;-57